Time;durP1;ratioP1;P1;durP2;ratioP2;P2;SDS_P1;SDS_P2;PMS_P1;PMS_P2;Temp;Humidity;BMP_temperature;BMP_pressure;BME280_temperature;BME280_humidity;BME280_pressure;Samples;Min_cycle;Max_cycle;Signal;HPM_P1;HPM_P2
2022/03/07 00:02:13;;;;;;;27.90;16.37;;;;;;;0.76;88.13;96297.38;4967158;28;20310;-84
2022/03/07 00:04:41;;;;;;;25.80;15.43;;;;;;;0.77;89.14;96299.00;4963967;28;20314;-84
2022/03/07 00:07:09;;;;;;;27.37;15.77;;;;;;;0.79;88.41;96289.03;4967520;28;20294;-84
2022/03/07 00:09:37;;;;;;;27.60;15.90;;;;;;;0.90;87.55;96295.81;4959733;28;20239;-84
2022/03/07 00:12:05;;;;;;;28.80;15.67;;;;;;;0.95;86.86;96299.63;4963137;28;20303;-84
2022/03/07 00:14:32;;;;;;;26.20;15.53;;;;;;;0.99;85.83;96295.63;4962115;28;20212;-83
2022/03/07 00:16:59;;;;;;;28.50;16.03;;;;;;;1.02;85.97;96294.47;4961591;28;20210;-84
2022/03/07 00:19:29;;;;;;;25.60;15.13;;;;;;;1.01;85.58;96290.97;4963213;28;20215;-84
2022/03/07 00:21:57;;;;;;;26.10;15.97;;;;;;;0.94;86.17;96291.81;4961148;28;20366;-84
2022/03/07 00:24:24;;;;;;;27.47;15.53;;;;;;;0.89;86.37;96302.13;4957703;28;20235;-84
2022/03/07 00:26:51;;;;;;;25.37;15.60;;;;;;;0.79;87.18;96299.69;4965783;28;20506;-84
2022/03/07 00:29:18;;;;;;;27.53;15.67;;;;;;;0.71;87.64;96287.25;4960215;28;20586;-83
2022/03/07 00:31:46;;;;;;;26.20;15.13;;;;;;;0.74;87.93;96304.69;4954924;28;20211;-84
2022/03/07 00:34:14;;;;;;;22.97;14.53;;;;;;;0.72;87.21;96304.84;4963207;28;20216;-84
2022/03/07 00:36:41;;;;;;;30.80;16.77;;;;;;;0.66;87.80;96310.03;4959859;28;20239;-84
2022/03/07 00:39:09;;;;;;;26.93;15.70;;;;;;;0.57;88.34;96305.72;4982357;28;20234;-83
2022/03/07 00:41:36;;;;;;;25.67;15.17;;;;;;;0.58;88.40;96307.38;4975872;28;20209;-83
2022/03/07 00:44:03;;;;;;;23.37;14.80;;;;;;;0.56;88.22;96298.75;4985840;28;20220;-83
2022/03/07 00:46:31;;;;;;;25.13;15.07;;;;;;;0.64;88.02;96302.22;4959983;28;20301;-83
2022/03/07 00:48:58;;;;;;;25.53;14.80;;;;;;;0.68;87.00;96303.50;4958074;28;20220;-83
2022/03/07 00:51:26;;;;;;;28.13;15.17;;;;;;;0.68;87.30;96303.50;4962408;28;20240;-84
2022/03/07 00:53:53;;;;;;;27.27;15.67;;;;;;;0.53;87.57;96299.91;4966222;28;20215;-84
2022/03/07 00:56:21;;;;;;;24.77;14.33;;;;;;;0.44;88.26;96300.91;4962111;28;20286;-84
2022/03/07 00:58:49;;;;;;;29.20;16.60;;;;;;;0.43;89.34;96298.44;4978601;28;20210;-83
2022/03/07 01:01:16;;;;;;;27.90;16.20;;;;;;;0.40;90.02;96294.31;4960974;28;20229;-83
2022/03/07 01:03:43;;;;;;;26.07;15.90;;;;;;;0.42;90.24;96297.63;4968001;28;20252;-83
2022/03/07 01:06:10;;;;;;;27.37;14.90;;;;;;;0.52;88.98;96295.59;4959041;28;20240;-84
2022/03/07 01:08:37;;;;;;;26.47;15.33;;;;;;;0.49;88.28;96295.94;4958310;28;20225;-84
2022/03/07 01:11:05;;;;;;;27.63;15.30;;;;;;;0.47;89.39;96284.66;4976937;28;20335;-84
2022/03/07 01:13:34;;;;;;;26.87;15.10;;;;;;;0.48;88.82;96294.28;4960523;28;20233;-84
2022/03/07 01:16:02;;;;;;;29.33;14.93;;;;;;;0.49;89.72;96276.53;4954474;28;20221;-84
2022/03/07 01:18:29;;;;;;;24.07;14.43;;;;;;;0.49;89.83;96274.69;4963188;28;20260;-84
2022/03/07 01:20:56;;;;;;;24.30;14.07;;;;;;;0.45;90.18;96277.84;4964420;28;20205;-84
2022/03/07 01:23:24;;;;;;;24.50;15.13;;;;;;;0.42;89.96;96276.38;4959774;28;20217;-83
2022/03/07 01:25:51;;;;;;;24.23;14.13;;;;;;;0.42;91.39;96276.38;4948889;28;20238;-84
2022/03/07 01:28:19;;;;;;;24.77;14.43;;;;;;;0.43;90.49;96279.84;4973854;28;20290;-84
2022/03/07 01:30:48;;;;;;;24.53;14.67;;;;;;;0.41;90.00;96274.72;4962447;28;20217;-84
2022/03/07 01:33:16;;;;;;;30.37;15.37;;;;;;;0.41;90.52;96268.56;4963317;28;20260;-84
2022/03/07 01:35:43;;;;;;;25.00;14.63;;;;;;;0.39;90.24;96266.06;4959704;28;20204;-84
2022/03/07 01:38:12;;;;;;;26.07;15.27;;;;;;;0.38;90.99;96272.38;4956291;28;20251;-84
2022/03/07 01:40:41;;;;;;;25.20;14.73;;;;;;;0.34;91.36;96271.88;4951045;28;20212;-84
2022/03/07 01:43:08;;;;;;;22.03;14.03;;;;;;;0.27;91.91;96267.41;4963441;28;20294;-84
2022/03/07 01:45:36;;;;;;;24.37;14.87;;;;;;;0.20;92.19;96255.81;4959933;28;20209;-84
2022/03/07 01:48:05;;;;;;;25.60;14.93;;;;;;;0.19;92.46;96259.47;4977691;28;20205;-84
2022/03/07 01:50:32;;;;;;;25.37;14.83;;;;;;;0.15;92.81;96259.00;4964635;28;20232;-84
2022/03/07 01:52:59;;;;;;;25.03;15.07;;;;;;;0.14;93.04;96261.81;4973754;28;20527;-84
2022/03/07 01:55:27;;;;;;;25.27;14.40;;;;;;;0.18;92.61;96271.91;4966132;28;20224;-83
2022/03/07 01:57:58;;;;;;;27.43;14.60;;;;;;;0.16;92.94;96265.13;4964961;28;20209;-84
2022/03/07 02:00:28;;;;;;;25.77;15.17;;;;;;;0.18;93.16;96261.28;4959900;28;20224;-83
2022/03/07 02:02:55;;;;;;;25.43;14.53;;;;;;;0.17;93.77;96264.94;4973625;28;20222;-84
2022/03/07 02:05:33;;;;;;;22.20;14.10;;;;;;;0.19;92.45;96260.28;4958536;28;20224;-83
2022/03/07 02:08:18;;;;;;;25.00;14.77;;;;;;;0.19;93.02;96270.09;4974253;28;20239;-84
2022/03/07 02:10:55;;;;;;;25.87;14.67;;;;;;;0.16;92.88;96255.34;4950958;28;20398;-84
2022/03/07 02:13:23;;;;;;;24.63;13.90;;;;;;;0.07;92.42;96253.69;4959045;28;20232;-84
2022/03/07 02:15:58;;;;;;;25.07;14.53;;;;;;;0.06;93.47;96264.47;4995695;28;20466;-83
2022/03/07 02:18:31;;;;;;;25.53;14.03;;;;;;;-0.04;93.88;96259.31;4949978;28;20201;-84
2022/03/07 02:21:16;;;;;;;26.27;15.13;;;;;;;-0.06;94.68;96261.31;4961942;28;20208;-84
2022/03/07 02:24:08;;;;;;;27.83;14.53;;;;;;;-0.09;93.25;96259.84;4959916;28;20315;-84
2022/03/07 02:26:37;;;;;;;33.53;14.90;;;;;;;-0.13;93.97;96258.50;4976491;28;20208;-84
2022/03/07 02:29:04;;;;;;;24.53;13.97;;;;;;;-0.11;94.48;96258.34;4972436;28;20207;-83
2022/03/07 02:31:34;;;;;;;24.20;14.07;;;;;;;-0.18;93.33;96247.56;4962326;28;20315;-83
2022/03/07 02:34:04;;;;;;;24.37;13.73;;;;;;;-0.28;93.63;96246.06;4976126;28;20723;-84
2022/03/07 02:36:32;;;;;;;22.97;14.17;;;;;;;-0.23;94.09;96254.34;4963397;28;20316;-84
2022/03/07 02:39:02;;;;;;;23.97;13.70;;;;;;;-0.19;94.70;96250.38;4964340;28;20327;-84
2022/03/07 02:41:31;;;;;;;26.87;14.90;;;;;;;-0.25;94.54;96240.41;4965021;28;20234;-84
2022/03/07 02:43:58;;;;;;;25.63;14.50;;;;;;;-0.29;95.08;96245.25;4973205;28;20215;-84
2022/03/07 02:46:26;;;;;;;25.57;14.50;;;;;;;-0.31;96.03;96249.88;4979424;28;20217;-84
2022/03/07 02:48:53;;;;;;;25.23;15.03;;;;;;;-0.35;95.87;96245.06;4962934;28;20205;-84
2022/03/07 02:51:20;;;;;;;27.90;15.33;;;;;;;-0.43;95.73;96243.25;4966588;28;20455;-83
2022/03/07 02:53:49;;;;;;;27.23;14.43;;;;;;;-0.51;96.66;96240.59;4984043;28;20208;-84
2022/03/07 02:56:16;;;;;;;27.37;15.37;;;;;;;-0.57;95.84;96242.06;4962557;28;20212;-84
2022/03/07 02:58:44;;;;;;;26.73;14.73;;;;;;;-0.54;96.86;96236.44;4966275;28;20241;-83
2022/03/07 03:01:12;;;;;;;25.50;14.67;;;;;;;-0.51;96.57;96236.09;4962610;28;20274;-84
2022/03/07 03:03:39;;;;;;;22.47;13.53;;;;;;;-0.48;94.78;96235.78;4953944;28;20289;-84
2022/03/07 03:06:06;;;;;;;26.90;13.93;;;;;;;-0.47;95.49;96236.59;4965849;28;20251;-84
2022/03/07 03:08:33;;;;;;;22.27;13.67;;;;;;;-0.43;94.89;96235.28;4957645;28;21323;-84
2022/03/07 03:11:01;;;;;;;22.67;13.73;;;;;;;-0.46;94.76;96239.09;4964113;28;20225;-84
2022/03/07 03:13:29;;;;;;;23.80;13.77;;;;;;;-0.49;94.64;96235.94;5011545;28;20224;-84
2022/03/07 03:15:57;;;;;;;25.27;12.90;;;;;;;-0.51;94.30;96240.59;4966177;28;20213;-84
2022/03/07 03:18:25;;;;;;;25.80;14.57;;;;;;;-0.58;94.63;96235.09;4958969;28;20484;-84
2022/03/07 03:20:53;;;;;;;21.43;12.83;;;;;;;-0.54;94.78;96238.25;4958099;28;20245;-83
2022/03/07 03:23:22;;;;;;;24.20;13.27;;;;;;;-0.50;94.75;96235.09;4960626;28;20327;-83
2022/03/07 03:25:49;;;;;;;22.20;12.33;;;;;;;-0.45;93.59;96242.59;4991861;28;20212;-84
2022/03/07 03:28:16;;;;;;;22.97;13.43;;;;;;;-0.47;93.22;96257.81;4966216;28;20330;-84
2022/03/07 03:30:43;;;;;;;27.47;13.17;;;;;;;-0.56;94.08;96253.50;4963230;28;20229;-83
2022/03/07 03:33:12;;;;;;;19.80;12.00;;;;;;;-0.68;94.45;96250.31;4960593;28;20511;-82
2022/03/07 03:35:39;;;;;;;23.90;13.77;;;;;;;-0.66;94.78;96244.88;4964361;28;20235;-82
2022/03/07 03:38:08;;;;;;;24.67;13.73;;;;;;;-0.70;94.91;96252.34;4960594;28;20241;-83
2022/03/07 03:40:35;;;;;;;21.53;13.10;;;;;;;-0.82;95.08;96262.41;4961606;28;20205;-82
2022/03/07 03:43:02;;;;;;;21.90;13.03;;;;;;;-0.79;95.63;96263.91;4953910;28;20238;-83
2022/03/07 03:45:29;;;;;;;26.07;14.10;;;;;;;-0.78;96.43;96260.28;4970216;28;20201;-82
2022/03/07 03:47:56;;;;;;;24.23;13.90;;;;;;;-0.78;95.84;96263.75;4964334;28;20236;-83
2022/03/07 03:50:25;;;;;;;25.13;13.93;;;;;;;-0.77;96.00;96268.03;4973339;28;20224;-83
2022/03/07 03:52:52;;;;;;;23.53;14.03;;;;;;;-0.77;96.14;96273.34;4961702;28;20300;-83
2022/03/07 03:55:19;;;;;;;23.67;13.63;;;;;;;-0.79;96.36;96270.03;4965463;28;20221;-83
2022/03/07 03:57:46;;;;;;;26.73;15.13;;;;;;;-0.92;97.07;96266.19;4964378;28;20258;-83
2022/03/07 04:00:16;;;;;;;27.80;14.67;;;;;;;-0.91;96.51;96276.63;4958331;28;20202;-83
2022/03/07 04:02:44;;;;;;;27.47;15.03;;;;;;;-0.93;97.00;96277.75;4977387;28;20212;-83
2022/03/07 04:05:12;;;;;;;23.53;14.53;;;;;;;-0.97;97.56;96279.94;4979775;28;20210;-83
2022/03/07 04:07:41;;;;;;;26.53;14.67;;;;;;;-0.98;97.83;96269.47;4954550;28;20220;-83
2022/03/07 04:10:09;;;;;;;28.13;14.97;;;;;;;-1.05;98.46;96268.47;4959348;28;20273;-83
2022/03/07 04:12:36;;;;;;;29.93;17.20;;;;;;;-1.05;99.45;96279.06;4959935;28;20254;-83
2022/03/07 04:15:04;;;;;;;28.70;15.57;;;;;;;-1.04;100.00;96292.16;4965069;28;20201;-83
2022/03/07 04:17:31;;;;;;;24.87;14.70;;;;;;;-1.07;99.73;96271.28;4974015;28;20214;-83
2022/03/07 04:19:59;;;;;;;25.07;15.50;;;;;;;-1.07;99.30;96286.34;4955051;28;20267;-83
2022/03/07 04:22:26;;;;;;;26.27;14.93;;;;;;;-1.13;100.00;96287.81;4956845;28;20254;-83
2022/03/07 04:24:54;;;;;;;26.07;15.13;;;;;;;-1.09;99.75;96298.91;4964471;28;20648;-83
2022/03/07 04:27:21;;;;;;;24.77;14.20;;;;;;;-1.15;99.28;96305.69;4972103;28;20260;-82
2022/03/07 04:29:49;;;;;;;29.87;15.90;;;;;;;-1.17;98.64;96297.88;4964354;28;20275;-83
2022/03/07 04:32:17;;;;;;;27.77;14.63;;;;;;;-1.19;99.52;96304.34;4962971;28;20228;-83
2022/03/07 04:34:44;;;;;;;26.17;14.67;;;;;;;-1.25;99.66;96311.09;4961508;28;20295;-83
2022/03/07 04:37:11;;;;;;;24.30;13.53;;;;;;;-1.32;100.00;96298.66;4959379;28;20213;-83
2022/03/07 04:39:39;;;;;;;26.73;14.93;;;;;;;-1.33;100.00;96297.81;4954888;28;20615;-82
2022/03/07 04:42:07;;;;;;;28.83;14.77;;;;;;;-1.26;99.39;96305.97;4959586;28;20303;-83
2022/03/07 04:44:34;;;;;;;28.23;14.20;;;;;;;-1.31;99.02;96302.97;4965178;28;20219;-83
2022/03/07 04:47:01;;;;;;;25.27;14.50;;;;;;;-1.34;98.89;96308.56;4960653;28;20218;-83
2022/03/07 04:49:29;;;;;;;22.87;13.27;;;;;;;-1.33;98.84;96303.13;4956710;28;20262;-83
2022/03/07 04:51:56;;;;;;;21.60;12.73;;;;;;;-1.32;97.16;96310.06;4973636;28;20229;-83
2022/03/07 04:54:23;;;;;;;23.70;13.07;;;;;;;-1.29;96.94;96309.78;4960551;28;20213;-82
2022/03/07 04:56:51;;;;;;;22.07;13.10;;;;;;;-1.38;97.20;96307.25;4963040;28;20320;-83
2022/03/07 04:59:20;;;;;;;26.87;13.77;;;;;;;-1.37;97.88;96316.84;5041750;28;20197;-83
2022/03/07 05:01:47;;;;;;;23.57;12.67;;;;;;;-1.32;98.07;96319.84;4967082;28;20208;-83
2022/03/07 05:04:14;;;;;;;21.10;12.57;;;;;;;-1.31;98.06;96316.22;4968183;28;20335;-83
2022/03/07 05:06:41;;;;;;;40.60;21.43;;;;;;;-1.34;97.78;96317.34;4956818;28;20209;-83
2022/03/07 05:09:08;;;;;;;61.47;32.73;;;;;;;-1.38;97.29;96321.31;4967350;28;20232;-82
2022/03/07 05:11:35;;;;;;;45.73;25.17;;;;;;;-1.41;96.94;96316.31;4959057;28;20229;-83
2022/03/07 05:14:03;;;;;;;41.37;20.73;;;;;;;-1.39;96.98;96313.53;4965607;28;20212;-82
2022/03/07 05:16:31;;;;;;;42.30;21.13;;;;;;;-1.36;97.53;96318.50;4964584;28;20211;-83
2022/03/07 05:18:58;;;;;;;29.53;16.40;;;;;;;-1.39;98.28;96321.47;4958798;28;20278;-82
2022/03/07 05:21:25;;;;;;;26.97;13.93;;;;;;;-1.38;98.38;96325.78;4962740;28;20233;-82
2022/03/07 05:23:52;;;;;;;21.90;13.27;;;;;;;-1.33;98.90;96328.78;4965336;28;20320;-82
2022/03/07 05:26:19;;;;;;;22.53;13.37;;;;;;;-1.31;98.87;96327.63;4963965;28;20273;-83
2022/03/07 05:28:46;;;;;;;22.97;12.93;;;;;;;-1.27;97.44;96320.19;4967466;28;20261;-82
2022/03/07 05:31:15;;;;;;;22.63;13.37;;;;;;;-1.23;98.18;96318.91;4955270;28;20553;-83
2022/03/07 05:33:43;;;;;;;23.23;13.30;;;;;;;-1.22;97.61;96325.88;4956803;28;20193;-82
2022/03/07 05:36:10;;;;;;;22.60;13.63;;;;;;;-1.21;98.28;96327.53;4961801;28;20247;-82
2022/03/07 05:38:37;;;;;;;24.23;14.33;;;;;;;-1.17;98.06;96323.56;4954704;28;20237;-82
2022/03/07 05:41:05;;;;;;;26.60;13.97;;;;;;;-1.15;98.54;96327.72;4959581;28;20253;-82
2022/03/07 05:43:32;;;;;;;25.97;14.23;;;;;;;-1.12;97.37;96326.56;4960243;28;20205;-83
2022/03/07 05:45:59;;;;;;;28.07;13.53;;;;;;;-1.11;97.22;96333.53;4971849;28;20240;-83
2022/03/07 05:48:27;;;;;;;25.70;14.67;;;;;;;-1.00;95.21;96330.59;4960785;28;20232;-82
2022/03/07 05:50:55;;;;;;;25.37;13.33;;;;;;;-0.98;94.56;96322.47;4956722;28;20300;-83
2022/03/07 05:53:23;;;;;;;24.63;13.23;;;;;;;-0.97;94.34;96324.97;4962156;28;20218;-82
2022/03/07 05:55:51;;;;;;;24.73;13.63;;;;;;;-0.93;94.46;96320.19;4960419;28;20220;-83
2022/03/07 05:58:18;;;;;;;29.83;14.90;;;;;;;-0.91;94.75;96326.97;4955420;28;20233;-83
2022/03/07 06:00:46;;;;;;;28.80;14.50;;;;;;;-0.86;94.24;96327.34;4971731;28;20209;-83
2022/03/07 06:03:14;;;;;;;25.60;14.03;;;;;;;-0.92;94.68;96317.38;4974555;28;20240;-83
2022/03/07 06:05:41;;;;;;;29.17;14.23;;;;;;;-0.90;95.34;96322.50;4955731;28;20236;-83
2022/03/07 06:08:10;;;;;;;26.80;14.30;;;;;;;-0.88;94.24;96320.53;4960214;28;20213;-83
2022/03/07 06:10:37;;;;;;;25.57;13.67;;;;;;;-0.97;94.79;96311.72;4956396;28;20206;-83
2022/03/07 06:13:04;;;;;;;24.10;14.13;;;;;;;-0.98;94.52;96302.13;4956949;28;20246;-83
2022/03/07 06:15:31;;;;;;;25.80;13.97;;;;;;;-0.87;93.58;96323.03;4956329;28;20197;-83
2022/03/07 06:17:59;;;;;;;25.87;14.60;;;;;;;-0.93;92.88;96313.06;4955426;28;20205;-83
2022/03/07 06:20:27;;;;;;;25.27;14.23;;;;;;;-0.88;93.48;96318.72;4951165;28;20301;-82
2022/03/07 06:22:55;;;;;;;24.37;13.70;;;;;;;-0.87;93.08;96323.03;4960799;28;20270;-83
2022/03/07 06:25:24;;;;;;;23.40;13.70;;;;;;;-0.88;93.06;96318.72;4962481;28;20248;-83
2022/03/07 06:27:51;;;;;;;26.63;13.23;;;;;;;-0.82;92.57;96325.19;4960592;28;20212;-82
2022/03/07 06:30:18;;;;;;;27.53;14.40;;;;;;;-0.83;91.41;96324.38;4964989;28;20231;-83
2022/03/07 06:32:45;;;;;;;23.63;13.10;;;;;;;-0.86;91.34;96322.06;4973009;28;20312;-82
2022/03/07 06:35:12;;;;;;;22.93;12.87;;;;;;;-0.80;91.39;96329.34;4962467;28;20209;-83
2022/03/07 06:37:45;;;;;;;25.37;14.70;;;;;;;-0.72;91.32;96327.72;4962072;28;20296;-83
2022/03/07 06:40:13;;;;;;;24.10;13.03;;;;;;;-0.74;90.54;96335.81;4958419;28;20296;-83
2022/03/07 06:42:41;;;;;;;24.50;13.23;;;;;;;-0.74;89.91;96330.53;4967188;28;20304;-83
2022/03/07 06:45:12;;;;;;;22.97;13.57;;;;;;;-0.77;89.32;96336.97;4960299;28;20318;-83
2022/03/07 06:47:39;;;;;;;31.50;17.93;;;;;;;-0.76;89.10;96337.78;4961276;28;20206;-83
2022/03/07 06:50:07;;;;;;;27.53;15.73;;;;;;;-0.72;87.16;96333.03;4956139;28;20308;-82
2022/03/07 06:52:34;;;;;;;26.63;14.93;;;;;;;-0.71;86.59;96342.63;4957161;28;20224;-83
2022/03/07 06:55:01;;;;;;;26.90;15.47;;;;;;;-0.73;87.05;96347.25;4960755;28;20313;-83
2022/03/07 06:57:29;;;;;;;25.20;14.40;;;;;;;-0.77;88.17;96354.72;4954187;28;20240;-83
2022/03/07 06:59:57;;;;;;;24.10;14.80;;;;;;;-0.79;88.29;96362.84;4957910;28;20271;-83
2022/03/07 07:02:24;;;;;;;24.30;13.80;;;;;;;-0.75;87.86;96360.66;4964506;28;20208;-83
2022/03/07 07:04:51;;;;;;;27.50;13.77;;;;;;;-0.77;86.86;96355.53;4954919;28;20216;-83
2022/03/07 07:07:18;;;;;;;25.37;14.00;;;;;;;-0.72;87.96;96351.56;4958088;28;20205;-83
2022/03/07 07:09:46;;;;;;;26.30;14.20;;;;;;;-0.68;87.63;96352.94;4965125;28;20295;-84
2022/03/07 07:12:13;;;;;;;23.37;14.60;;;;;;;-0.64;88.21;96362.22;4955279;28;20224;-83
2022/03/07 07:14:40;;;;;;;32.13;13.70;;;;;;;-0.64;88.17;96359.56;4954661;28;20205;-83
2022/03/07 07:17:09;;;;;;;23.80;13.40;;;;;;;-0.69;89.23;96353.91;4952131;28;20292;-83
2022/03/07 07:19:36;;;;;;;26.40;13.83;;;;;;;-0.62;88.75;96362.88;4960419;28;20250;-81
2022/03/07 07:22:04;;;;;;;22.47;13.30;;;;;;;-0.70;89.33;96363.69;4963515;28;20315;-82
2022/03/07 07:24:31;;;;;;;21.13;12.60;;;;;;;-0.66;89.14;96361.53;4960015;28;20315;-82
2022/03/07 07:26:58;;;;;;;24.53;13.33;;;;;;;-0.68;89.71;96358.25;4968451;28;20228;-82
2022/03/07 07:29:25;;;;;;;22.63;13.67;;;;;;;-0.70;89.15;96368.16;4955108;28;20214;-82
2022/03/07 07:31:53;;;;;;;25.00;13.20;;;;;;;-0.64;89.49;96370.16;4963780;28;20229;-82
2022/03/07 07:34:22;;;;;;;23.03;12.20;;;;;;;-0.64;89.14;96362.22;4978510;28;20284;-82
2022/03/07 07:36:50;;;;;;;20.93;12.17;;;;;;;-0.51;89.09;96365.25;4957836;28;20210;-82
2022/03/07 07:39:18;;;;;;;21.57;12.70;;;;;;;-0.48;89.14;96363.09;4967330;28;20241;-82
2022/03/07 07:41:45;;;;;;;26.73;14.80;;;;;;;-0.46;87.14;96368.25;4970860;28;20233;-82
2022/03/07 07:44:12;;;;;;;27.13;15.23;;;;;;;-0.50;87.92;96374.84;4979152;28;20228;-82
2022/03/07 07:46:39;;;;;;;28.50;15.20;;;;;;;-0.58;87.40;96367.69;4961780;28;20210;-83
2022/03/07 07:49:06;;;;;;;30.10;15.37;;;;;;;-0.67;87.34;96367.81;4962244;28;20220;-82
2022/03/07 07:51:35;;;;;;;27.70;15.30;;;;;;;-0.70;86.78;96368.16;4961756;28;20286;-83
2022/03/07 07:54:02;;;;;;;28.47;14.83;;;;;;;-0.73;85.90;96357.88;4957341;28;20244;-83
2022/03/07 07:56:29;;;;;;;27.20;15.27;;;;;;;-0.70;86.80;96363.69;4963497;28;20201;-84
2022/03/07 07:58:56;;;;;;;26.93;15.07;;;;;;;-0.62;87.05;96365.53;4957473;28;20233;-83
2022/03/07 08:01:24;;;;;;;29.40;14.63;;;;;;;-0.60;87.40;96360.91;4963688;28;20202;-83
2022/03/07 08:03:51;;;;;;;26.20;14.57;;;;;;;-0.61;86.98;96364.56;4962524;28;20236;-83
2022/03/07 08:06:18;;;;;;;26.43;15.67;;;;;;;-0.62;88.35;96365.53;4953646;28;20217;-83
2022/03/07 08:08:47;;;;;;;35.33;15.03;;;;;;;-0.69;87.62;96375.13;4959059;28;20307;-83
2022/03/07 08:11:14;;;;;;;28.13;16.10;;;;;;;-0.73;88.85;96363.16;4953823;28;20297;-82
2022/03/07 08:13:42;;;;;;;26.87;14.77;;;;;;;-0.70;88.38;96384.91;4961603;28;20236;-83
2022/03/07 08:16:09;;;;;;;26.13;14.93;;;;;;;-0.60;89.24;96380.31;4962741;28;20209;-83
2022/03/07 08:18:36;;;;;;;28.73;15.40;;;;;;;-0.53;87.75;96380.50;4963868;28;20312;-84
2022/03/07 08:21:03;;;;;;;31.47;14.67;;;;;;;-0.54;87.66;96378.81;4991594;28;20283;-83
2022/03/07 08:23:30;;;;;;;27.60;14.17;;;;;;;-0.53;85.96;96383.13;4965080;28;20280;-83
2022/03/07 08:25:59;;;;;;;26.80;13.40;;;;;;;-0.44;85.46;96390.13;4962158;28;20307;-83
2022/03/07 08:28:26;;;;;;;23.37;14.47;;;;;;;-0.38;85.52;96384.19;4965523;28;20221;-83
2022/03/07 08:30:53;;;;;;;40.03;21.83;;;;;;;-0.41;84.26;96385.31;4966006;28;20240;-84
2022/03/07 08:33:20;;;;;;;27.40;15.33;;;;;;;-0.29;85.21;96393.81;4967874;28;20224;-83
2022/03/07 08:35:47;;;;;;;21.30;13.00;;;;;;;-0.27;84.66;96380.41;4963527;28;20205;-83
2022/03/07 08:38:14;;;;;;;22.13;12.30;;;;;;;-0.17;84.36;96387.19;4960484;28;20286;-83
2022/03/07 08:40:41;;;;;;;21.77;13.03;;;;;;;-0.08;84.15;96394.19;4961588;28;20229;-84
2022/03/07 08:43:10;;;;;;;25.00;14.40;;;;;;;0.02;81.89;96388.72;5000256;28;20217;-83
2022/03/07 08:45:37;;;;;;;22.13;13.13;;;;;;;0.17;80.57;96391.59;4959183;28;20292;-83
2022/03/07 08:48:05;;;;;;;24.03;12.17;;;;;;;0.35;78.99;96398.38;4982536;28;20217;-83
2022/03/07 08:50:32;;;;;;;22.60;12.20;;;;;;;0.51;77.07;96391.41;4962017;28;20283;-83
2022/03/07 08:53:00;;;;;;;20.47;11.57;;;;;;;0.66;76.78;96387.91;4959403;28;20241;-83
2022/03/07 08:55:27;;;;;;;21.53;11.90;;;;;;;0.82;76.06;96391.53;4966081;28;20220;-82
2022/03/07 08:57:55;;;;;;;23.20;12.80;;;;;;;0.83;72.71;96393.22;4960016;28;20205;-83
2022/03/07 09:00:23;;;;;;;18.57;11.67;;;;;;;0.97;74.15;96395.16;4961547;28;20382;-82
2022/03/07 09:02:50;;;;;;;19.90;12.27;;;;;;;1.01;72.79;96391.19;4955245;28;20225;-84
2022/03/07 09:05:17;;;;;;;19.97;12.00;;;;;;;1.16;73.86;96388.63;4958790;28;20211;-84
2022/03/07 09:07:45;;;;;;;22.83;13.27;;;;;;;1.22;72.88;96378.13;4958647;28;20603;-83
2022/03/07 09:10:12;;;;;;;20.80;12.87;;;;;;;1.38;71.87;96369.25;4963401;28;20327;-84
2022/03/07 09:12:39;;;;;;;25.70;14.03;;;;;;;1.53;72.60;96378.19;4959645;28;20318;-83
2022/03/07 09:15:09;;;;;;;24.20;14.30;;;;;;;1.71;71.89;96375.25;4971122;28;20238;-84
2022/03/07 09:17:37;;;;;;;24.33;14.63;;;;;;;1.77;71.95;96366.59;4956943;28;20231;-84
2022/03/07 09:20:06;;;;;;;25.23;15.07;;;;;;;1.95;72.96;96367.16;4957447;28;20212;-84
2022/03/07 09:22:33;;;;;;;26.77;15.40;;;;;;;1.96;73.14;96376.75;4986330;28;20204;-84
2022/03/07 09:25:00;;;;;;;24.70;15.10;;;;;;;1.99;72.12;96379.09;4961509;28;20224;-84
2022/03/07 09:27:28;;;;;;;27.20;15.60;;;;;;;1.94;70.70;96378.78;4963218;28;20321;-83
2022/03/07 09:29:55;;;;;;;26.57;15.90;;;;;;;1.92;70.98;96386.13;4953421;28;20213;-84
2022/03/07 09:32:22;;;;;;;26.63;15.53;;;;;;;2.08;69.94;96378.03;4974643;28;20219;-84
2022/03/07 09:34:50;;;;;;;25.30;14.93;;;;;;;2.17;69.69;96379.63;4956215;28;20209;-84
2022/03/07 09:37:17;;;;;;;26.43;14.43;;;;;;;2.27;69.07;96372.25;4965130;28;20216;-84
2022/03/07 09:39:46;;;;;;;28.00;15.57;;;;;;;2.42;69.12;96371.44;4960347;28;20243;-83
2022/03/07 09:42:13;;;;;;;25.97;14.67;;;;;;;2.50;65.97;96376.72;4965730;28;20209;-84
2022/03/07 09:44:40;;;;;;;26.33;15.50;;;;;;;2.57;65.98;96366.97;4961446;28;20197;-83
2022/03/07 09:47:09;;;;;;;28.07;16.60;;;;;;;2.73;65.89;96372.16;4955576;28;20258;-84
2022/03/07 09:49:36;;;;;;;26.20;15.17;;;;;;;2.88;65.51;96373.03;4965248;28;20201;-83
2022/03/07 09:52:05;;;;;;;24.80;15.70;;;;;;;2.91;64.30;96367.31;4954838;28;20209;-83
2022/03/07 09:54:32;;;;;;;27.47;15.50;;;;;;;3.02;62.06;96364.22;4964342;28;20225;-83
2022/03/07 09:57:00;;;;;;;25.13;14.90;;;;;;;3.21;62.28;96376.19;4957572;28;20234;-83
2022/03/07 09:59:27;;;;;;;29.80;15.27;;;;;;;3.38;61.96;96376.84;4963310;28;20353;-84
2022/03/07 10:02:01;;;;;;;25.97;14.17;;;;;;;3.51;59.44;96376.16;4957624;28;20225;-84
2022/03/07 10:04:29;;;;;;;26.37;14.80;;;;;;;3.58;59.05;96377.91;4959203;28;20209;-84
2022/03/07 10:06:56;;;;;;;25.03;14.10;;;;;;;3.79;58.74;96380.66;4956858;28;20224;-84
2022/03/07 10:09:26;;;;;;;23.53;15.00;;;;;;;3.91;59.18;96378.34;4959405;28;20201;-83
2022/03/07 10:11:55;;;;;;;26.03;15.90;;;;;;;3.97;60.07;96368.72;4962516;28;20236;-84
2022/03/07 10:14:32;;;;;;;27.67;15.03;;;;;;;4.05;59.92;96385.47;4958355;28;20225;-84
2022/03/07 10:17:00;;;;;;;27.27;15.80;;;;;;;4.04;62.08;96372.28;4957769;28;20220;-83
2022/03/07 10:19:28;;;;;;;28.27;15.70;;;;;;;4.21;64.73;96372.88;4963908;28;20201;-83
2022/03/07 10:21:55;;;;;;;25.33;15.63;;;;;;;4.37;63.13;96372.63;4952774;28;20235;-83
2022/03/07 10:24:35;;;;;;;26.33;15.87;;;;;;;4.44;63.06;96382.38;4963332;28;20293;-84
2022/03/07 10:27:02;;;;;;;30.13;16.80;;;;;;;4.36;63.21;96374.47;4960467;28;20292;-84
2022/03/07 10:29:29;;;;;;;26.83;15.77;;;;;;;4.46;64.61;96374.16;4972506;28;20213;-83
2022/03/07 10:31:56;;;;;;;26.17;16.17;;;;;;;4.47;64.90;96378.50;4965128;28;20222;-83
2022/03/07 10:34:25;;;;;;;26.23;15.73;;;;;;;4.57;63.98;96379.84;4992212;28;20367;-83
2022/03/07 10:36:53;;;;;;;27.03;15.70;;;;;;;4.77;64.26;96377.31;4966569;28;20209;-84
2022/03/07 10:39:25;;;;;;;26.30;15.70;;;;;;;4.82;62.26;96382.91;4954471;28;20381;-84
2022/03/07 10:41:54;;;;;;;25.63;16.13;;;;;;;4.91;61.60;96380.94;4957676;28;20299;-84
2022/03/07 10:44:30;;;;;;;27.63;16.67;;;;;;;4.98;61.02;96389.84;4956144;28;20343;-84
2022/03/07 10:47:09;;;;;;;27.47;16.73;;;;;;;5.09;60.93;96383.13;4956408;28;20212;-84
2022/03/07 10:49:36;;;;;;;25.20;15.57;;;;;;;5.25;59.12;96388.19;4951008;28;20210;-84
2022/03/07 10:52:05;;;;;;;23.80;15.07;;;;;;;5.31;59.70;96382.84;4968590;28;20210;-84
2022/03/07 10:54:37;;;;;;;26.23;15.47;;;;;;;5.41;58.29;96387.84;4979666;28;20225;-83
2022/03/07 10:57:09;;;;;;;25.90;16.37;;;;;;;5.44;58.53;96382.13;4954806;28;20316;-84
2022/03/07 10:59:37;;;;;;;24.77;15.77;;;;;;;5.68;57.18;96372.75;4962221;28;20323;-83
2022/03/07 11:02:09;;;;;;;28.00;16.77;;;;;;;5.83;57.21;96373.44;4963727;28;20267;-84
2022/03/07 11:04:38;;;;;;;23.97;14.70;;;;;;;6.02;55.43;96364.69;4967235;28;20212;-83
2022/03/07 11:07:05;;;;;;;24.73;15.63;;;;;;;6.02;55.45;96363.84;4953918;28;20216;-83
2022/03/07 11:09:33;;;;;;;27.30;16.27;;;;;;;6.20;55.50;96365.97;4964961;28;20300;-83
2022/03/07 11:12:01;;;;;;;31.07;15.80;;;;;;;6.34;55.24;96364.97;4964278;28;20203;-83
2022/03/07 11:14:29;;;;;;;25.40;15.27;;;;;;;6.47;54.11;96371.16;4957442;28;20301;-84
2022/03/07 11:16:58;;;;;;;24.37;16.07;;;;;;;6.50;54.32;96372.63;4952858;28;20210;-84
2022/03/07 11:19:25;;;;;;;23.47;15.13;;;;;;;6.61;54.26;96361.28;4966497;28;20247;-84
2022/03/07 11:21:54;;;;;;;27.97;15.53;;;;;;;6.68;52.57;96374.72;4958224;28;20206;-84
2022/03/07 11:24:24;;;;;;;23.07;15.40;;;;;;;6.81;53.00;96372.84;4960534;28;20298;-84
2022/03/07 11:26:54;;;;;;;24.57;15.37;;;;;;;6.79;52.48;96364.19;4961213;28;20339;-84